Terminal Aerodrome Forecast
Issued by NWS

Home | Current Version | Previous Version | Graphics & Text | Print | Product List | Glossary On
Versions: 1 2 3 4 5 6 7 8 9 10 11 12 13 14 15 16 17
000
FTUS41 KCLE 042208 AAA
TAFFDY
TAF AMD
KFDY 042208Z 0422/0518 07005KT 4SM -RASN BR OVC025
     FM050000 10006KT 4SM -RASN BR OVC010
      TEMPO 0500/0504 2SM -SN BR OVC006
     FM050600 25010KT P6SM OVC012
     FM051500 25010KT P6SM OVC025=

USA.gov is the U.S. government's official web portal to all federal, state and local government web resources and services.